CMA CGM Thalassa — 5BNE2 — position and weather

sailwx.info

Track history (hours):
 
Tides and Currents Weather Stations Pressure Air Temp Water Temp Dewpoint Dewpoint Depression Visibility Wind Speed Wind Dir Waves Ship Positions

CMA CGM Thalassa

Last reported at 2016-Jun-09 14:30 UTC. Time now 2016-Jun-29 11:06 UTC.
Position N 36°53' W 125°26'.
Warning: this ship's position is 19 days out of date.

Length 347 m; draft 10.3 m.

Type: Ship (hazmat cat A). MMSI: 212151000.

Date/timePositionNaut miles runAvg speedWind from/ knotsBaromVisibWave heightAir tempDewpointWater temp
2016-Jun-09 14:30N 36°53' W 125°26'1112.1
2016-Jun-09 13:33N 36°57' W 125°13'1311.3
2016-Jun-09 12:25N 37°01' W 124°58'910.8
2016-Jun-09 11:33N 37°05' W 124°47'1211.8
2016-Jun-09 10:33N 37°09' W 124°33'1411.6
2016-Jun-09 09:19N 37°14' W 124°16'1011.2
2016-Jun-09 08:27N 37°17' W 124°05'1011.4
2016-Jun-09 07:33N 37°20' W 123°52'1111.4
2016-Jun-09 06:33N 37°24' W 123°39'1111.4
2016-Jun-09 05:33N 37°28' W 123°25'1111.4
2016-Jun-09 04:33N 37°32' W 123°12'10 9.9
2016-Jun-09 03:33N 37°36' W 123°00'1010.4
2016-Jun-09 02:33N 37°42' W 122°49'10 9.8
2016-Jun-09 01:33N 37°46' W 122°38'1211.8
2016-Jun-09 00:33N 37°50' W 122°24'6 5.7
2016-Jun-08 23:34N 37°48' W 122°18'1 0.9
2016-Jun-08 22:34N 37°48' W 122°19'0 0.0
2016-Jun-08 21:30N 37°48' W 122°19'0 0.0
2016-Jun-08 20:30N 37°48' W 122°19'0 0.0
2016-Jun-08 19:29N 37°48' W 122°19'0 0.0
2016-Jun-08 18:29N 37°48' W 122°19'0 0.0
2016-Jun-08 17:31N 37°48' W 122°19'0 0.0
2016-Jun-08 16:28N 37°48' W 122°19'0 0.0
2016-Jun-08 15:33N 37°48' W 122°19'0 0.0
2016-Jun-08 14:33N 37°48' W 122°19'0 0.0
2016-Jun-08 13:33N 37°48' W 122°19'0 0.0
2016-Jun-08 12:32N 37°48' W 122°19'0 0.0
2016-Jun-08 11:32N 37°48' W 122°19'0 0.0
2016-Jun-08 10:31N 37°48' W 122°19'0 0.0
2016-Jun-08 09:31N 37°48' W 122°19'0 0.0
2016-Jun-08 08:30N 37°48' W 122°19'0 0.0
2016-Jun-08 07:33N 37°48' W 122°19'0 0.0
2016-Jun-08 06:32N 37°48' W 122°19'0 0.0
2016-Jun-08 05:32N 37°48' W 122°19'0 0.0
2016-Jun-08 04:28N 37°48' W 122°19'0 0.0
2016-Jun-08 03:28N 37°48' W 122°19'0 0.0
2016-Jun-08 02:28N 37°48' W 122°19'0 0.0
2016-Jun-08 01:33N 37°48' W 122°19'0 0.0
2016-Jun-08 00:27N 37°48' W 122°19'0 0.0
2016-Jun-07 23:32N 37°48' W 122°19'0 0.0
2016-Jun-07 22:32N 37°48' W 122°19'0 0.0
2016-Jun-07 21:25N 37°48' W 122°19'0 0.0
2016-Jun-07 20:31N 37°48' W 122°19'0 0.0
2016-Jun-07 19:31N 37°48' W 122°19'0 0.0
2016-Jun-07 18:30N 37°48' W 122°19'0 0.0
2016-Jun-07 17:30N 37°48' W 122°19'0 0.0
2016-Jun-07 16:29N 37°48' W 122°19'0 0.0
2016-Jun-07 15:29N 37°48' W 122°19'0 0.0
2016-Jun-07 14:31N 37°48' W 122°19'0 0.0
2016-Jun-07 13:31N 37°48' W 122°19'0 0.0
2016-Jun-07 12:34N 37°48' W 122°19'0 0.0
2016-Jun-07 11:33N 37°48' W 122°19'0 0.0
2016-Jun-07 10:33N 37°48' W 122°19'0 0.0
2016-Jun-07 09:33N 37°48' W 122°19'8 8.4
2016-Jun-07 08:33N 37°49' W 122°30'1111.1
2016-Jun-07 07:33N 37°42' W 122°40'8 7.8
2016-Jun-07 06:33N 37°34' W 122°40'9 8.8
2016-Jun-07 05:33N 37°25' W 122°39'1010.0
2016-Jun-07 04:33N 37°15' W 122°39'1110.8
2016-Jun-07 03:33N 37°04' W 122°36'1110.5
2016-Jun-07 02:33N 36°55' W 122°31'1110.6
2016-Jun-07 01:33N 36°45' W 122°26'1010.5
2016-Jun-07 00:33N 36°35' W 122°22'1110.6
2016-Jun-06 23:33N 36°25' W 122°17'1110.9
2016-Jun-06 22:33N 36°15' W 122°12'1111.2
2016-Jun-06 21:33N 36°05' W 122°07'1211.7
2016-Jun-06 20:33N 35°54' W 122°01'3411.3
2016-Jun-06 17:33N 35°24' W 121°41'1212.2
2016-Jun-06 16:33N 35°14' W 121°33'1212.4
2016-Jun-06 15:33N 35°04' W 121°25'1313.4
2016-Jun-06 14:33N 34°52' W 121°16'1313.3
2016-Jun-06 13:33N 34°41' W 121°06'1412.7
2016-Jun-06 12:28N 34°30' W 120°57'1212.4
2016-Jun-06 11:31N 34°25' W 120°45'1212.3
2016-Jun-06 10:30N 34°21' W 120°30'4912.1
2016-Jun-06 06:28N 34°08' W 119°33'1112.1
2016-Jun-06 05:31N 34°05' W 119°20'1312.2
2016-Jun-06 04:29N 34°00' W 119°06'1111.7
2016-Jun-06 03:33N 33°55' W 118°54'1111.3
2016-Jun-06 02:33N 33°50' W 118°43'1211.8
2016-Jun-06 01:33N 33°44' W 118°30'1211.7
2016-Jun-06 00:33N 33°38' W 118°18'8 8.1
2016-Jun-05 23:33N 33°44' W 118°11'1 0.7
2016-Jun-05 22:31N 33°44' W 118°12'0 0.0
2016-Jun-05 21:31N 33°44' W 118°12'0 0.0
2016-Jun-05 20:28N 33°44' W 118°12'0 0.0
2016-Jun-05 19:33N 33°44' W 118°12'0 0.0
2016-Jun-05 18:33N 33°44' W 118°12'0 0.0
2016-Jun-05 17:32N 33°44' W 118°12'0 0.0
2016-Jun-05 16:32N 33°44' W 118°12'0 0.0
2016-Jun-05 15:22N 33°44' W 118°12'0 0.0
2016-Jun-05 14:31N 33°44' W 118°12'0 0.0
2016-Jun-05 13:34N 33°44' W 118°12'0 0.0
2016-Jun-05 12:33N 33°44' W 118°12'0 0.0
2016-Jun-05 11:30N 33°44' W 118°12'0 0.0
2016-Jun-05 10:29N 33°44' W 118°12'0 0.0
2016-Jun-05 09:32N 33°44' W 118°12'0 0.0
2016-Jun-05 08:31N 33°44' W 118°12'0 0.0
2016-Jun-05 07:31N 33°44' W 118°12'0 0.0
2016-Jun-05 06:30N 33°44' W 118°12'0 0.0
2016-Jun-05 05:33N 33°44' W 118°12'0 0.0
2016-Jun-05 04:33N 33°44' W 118°12'0 0.0
2016-Jun-05 03:32N 33°44' W 118°12'0 0.0
2016-Jun-05 02:32N 33°44' W 118°12'0 0.0
2016-Jun-05 01:31N 33°44' W 118°12'0 0.0
2016-Jun-05 00:31N 33°44' W 118°12'0 0.0
2016-Jun-04 23:33N 33°44' W 118°12'0 0.0
2016-Jun-04 22:33N 33°44' W 118°12'0 0.0
2016-Jun-04 21:33N 33°44' W 118°12'0 0.0
2016-Jun-04 20:32N 33°44' W 118°12'0 0.0
2016-Jun-04 19:32N 33°44' W 118°12'0 0.0
2016-Jun-04 18:31N 33°44' W 118°12'0 0.0
2016-Jun-04 17:31N 33°44' W 118°12'0 0.0
2016-Jun-04 16:33N 33°44' W 118°12'0 0.0
2016-Jun-04 15:33N 33°44' W 118°12'0 0.0
2016-Jun-04 14:33N 33°44' W 118°12'0 0.0
2016-Jun-04 13:32N 33°44' W 118°12'0 0.0
2016-Jun-04 12:32N 33°44' W 118°12'0 0.0
2016-Jun-04 11:31N 33°44' W 118°12'0 0.0
2016-Jun-04 10:31N 33°44' W 118°12'0 0.0
2016-Jun-04 09:33N 33°44' W 118°12'0 0.0
2016-Jun-04 08:33N 33°44' W 118°12'0 0.0
2016-Jun-04 07:33N 33°44' W 118°12'0 0.0
2016-Jun-04 06:32N 33°44' W 118°12'0 0.0
2016-Jun-04 05:32N 33°44' W 118°12'0 0.0
2016-Jun-04 04:31N 33°44' W 118°12'0 0.0
2016-Jun-04 03:31N 33°44' W 118°12'0 0.0
2016-Jun-04 02:33N 33°44' W 118°12'0 0.0
2016-Jun-04 01:33N 33°44' W 118°12'0 0.0
2016-Jun-04 00:32N 33°44' W 118°12'0 0.0
2016-Jun-03 23:32N 33°44' W 118°12'0 0.0
2016-Jun-03 22:32N 33°44' W 118°12'0 0.0
2016-Jun-03 21:31N 33°44' W 118°12'0 0.0
2016-Jun-03 20:31N 33°44' W 118°12'0 0.0
2016-Jun-03 19:33N 33°44' W 118°12'0 0.0
2016-Jun-03 18:33N 33°44' W 118°12'0 0.0
2016-Jun-03 17:32N 33°44' W 118°12'0 0.0
2016-Jun-03 16:32N 33°44' W 118°12'0 0.0
2016-Jun-03 15:32N 33°44' W 118°12'0 0.0
2016-Jun-03 14:31N 33°44' W 118°12'0 0.0
2016-Jun-03 13:31N 33°44' W 118°12'0 0.0
2016-Jun-03 12:33N 33°44' W 118°12'0 0.0
2016-Jun-03 11:27N 33°44' W 118°12'0 0.0
2016-Jun-03 10:32N 33°44' W 118°12'0 0.0
2016-Jun-03 09:32N 33°44' W 118°12'0 0.0
2016-Jun-03 08:32N 33°44' W 118°12'0 0.0
2016-Jun-03 07:31N 33°44' W 118°12'0 0.0
2016-Jun-03 06:31N 33°44' W 118°12'0 0.0
2016-Jun-03 05:33N 33°44' W 118°12'0 0.0
2016-Jun-03 04:33N 33°44' W 118°12'0 0.0
2016-Jun-03 03:32N 33°44' W 118°12'0 0.0
2016-Jun-03 02:32N 33°44' W 118°12'0 0.0
2016-Jun-03 01:32N 33°44' W 118°12'0 0.0
2016-Jun-03 00:31N 33°44' W 118°12'0 0.0
2016-Jun-02 23:31N 33°44' W 118°12'0 0.0
2016-Jun-02 22:33N 33°44' W 118°12'0 0.0
2016-Jun-02 21:33N 33°44' W 118°12'0 0.0
2016-Jun-02 20:32N 33°44' W 118°12'0 0.0
2016-Jun-02 19:32N 33°44' W 118°12'0 0.0
2016-Jun-02 18:31N 33°44' W 118°12'0 0.0
2016-Jun-02 17:31N 33°44' W 118°12'0 0.0
2016-Jun-02 16:31N 33°44' W 118°12'0 0.0
2016-Jun-02 15:33N 33°44' W 118°12'0 0.0
2016-Jun-02 14:33N 33°44' W 118°12'0 0.0
2016-Jun-02 13:32N 33°44' W 118°12'0 0.0
2016-Jun-02 12:32N 33°44' W 118°12'0 0.0
2016-Jun-02 11:31N 33°44' W 118°12'0 0.0
2016-Jun-02 10:31N 33°44' W 118°12'0 0.0
2016-Jun-02 09:28N 33°44' W 118°12'0 0.0
2016-Jun-02 08:33N 33°44' W 118°12'0 0.0
2016-Jun-02 07:33N 33°44' W 118°12'0 0.0
2016-Jun-02 06:26N 33°44' W 118°12'0 0.0
2016-Jun-02 05:32N 33°44' W 118°12'0 0.0
2016-Jun-02 04:31N 33°44' W 118°12'0 0.0
2016-Jun-02 03:31N 33°44' W 118°12'0 0.0
2016-Jun-02 02:34N 33°44' W 118°12'0 0.0
2016-Jun-02 01:33N 33°44' W 118°12'0 0.0
2016-Jun-02 00:33N 33°44' W 118°12'0 0.0
2016-Jun-01 23:32N 33°44' W 118°12'0 0.0
2016-Jun-01 22:32N 33°44' W 118°12'1 0.7
2016-Jun-01 21:33N 33°44' W 118°11'7 7.2
2016-Jun-01 20:32N 33°37' W 118°13'2512.2
2016-Jun-01 18:30N 33°36' W 118°43'1413.8
2016-Jun-01 17:31N 33°37' W 118°60'16615.2
2016-Jun-01 06:32N 33°36' W 122°19'1616.2
2016-Jun-01 05:34N 33°36' W 122°38'1616.1
2016-Jun-01 04:34N 33°36' W 122°58'1616.1
2016-Jun-01 03:32N 33°36' W 123°17'1616.2
2016-Jun-01 02:34N 33°35' W 123°36'1917.3
2016-Jun-01 01:26N 33°35' W 123°60'1617.6
2016-Jun-01 00:32N 33°35' W 124°19'1918.8
2016-May-31 23:30N 33°39' W 124°42'2120.1
2016-May-31 22:28N 33°48' W 125°04'1920.9
2016-May-31 21:34N 33°56' W 125°25'2120.9
2016-May-31 20:34N 34°05' W 125°48'2520.9
2016-May-31 19:23N 34°15' W 126°15'2220.8
2016-May-31 18:20N 34°24' W 126°39'1721.0
2016-May-31 17:32N 34°31' W 126°58'2020.8
2016-May-31 16:33N 34°39' W 127°20'2120.8
2016-May-31 15:34N 34°47' W 127°43'2120.7
2016-May-31 14:33N 34°55' W 128°07'2120.8
2016-May-31 13:32N 35°03' W 128°31'2020.7
2016-May-31 12:34N 35°12' W 128°53'2120.6
2016-May-31 11:34N 35°19' W 129°16'2120.7
2016-May-31 10:33N 35°27' W 129°40'2120.7
2016-May-31 09:33N 35°35' W 130°04'2020.5
2016-May-31 08:34N 35°42' W 130°27'  
Track history (hours):
 
Tides and Currents Weather Stations Pressure Air Temp Water Temp Dewpoint Dewpoint Depression Visibility Wind Speed Wind Dir Waves Ship Positions

CMA CGM Thalassa

Last reported at 2016-Jun-09 14:30 UTC. Time now 2016-Jun-29 11:06 UTC.
Position N 36°53' W 125°26'.
Warning: this ship's position is 19 days out of date.

Length 347 m; draft 10.3 m.

Type: Ship (hazmat cat A). MMSI: 212151000.

Date/timePositionNaut miles runAvg speedWind from/ knotsBaromVisibWave heightAir tempDewpointWater temp
2016-Jun-09 14:30N 36°53' W 125°26'1112.1
2016-Jun-09 13:33N 36°57' W 125°13'1311.3
2016-Jun-09 12:25N 37°01' W 124°58'910.8
2016-Jun-09 11:33N 37°05' W 124°47'1211.8
2016-Jun-09 10:33N 37°09' W 124°33'1411.6
2016-Jun-09 09:19N 37°14' W 124°16'1011.2
2016-Jun-09 08:27N 37°17' W 124°05'1011.4
2016-Jun-09 07:33N 37°20' W 123°52'1111.4
2016-Jun-09 06:33N 37°24' W 123°39'1111.4
2016-Jun-09 05:33N 37°28' W 123°25'1111.4
2016-Jun-09 04:33N 37°32' W 123°12'10 9.9
2016-Jun-09 03:33N 37°36' W 123°00'1010.4
2016-Jun-09 02:33N 37°42' W 122°49'10 9.8
2016-Jun-09 01:33N 37°46' W 122°38'1211.8
2016-Jun-09 00:33N 37°50' W 122°24'6 5.7
2016-Jun-08 23:34N 37°48' W 122°18'1 0.9
2016-Jun-08 22:34N 37°48' W 122°19'0 0.0
2016-Jun-08 21:30N 37°48' W 122°19'0 0.0
2016-Jun-08 20:30N 37°48' W 122°19'0 0.0
2016-Jun-08 19:29N 37°48' W 122°19'0 0.0
2016-Jun-08 18:29N 37°48' W 122°19'0 0.0
2016-Jun-08 17:31N 37°48' W 122°19'0 0.0
2016-Jun-08 16:28N 37°48' W 122°19'0 0.0
2016-Jun-08 15:33N 37°48' W 122°19'0 0.0
2016-Jun-08 14:33N 37°48' W 122°19'0 0.0
2016-Jun-08 13:33N 37°48' W 122°19'0 0.0
2016-Jun-08 12:32N 37°48' W 122°19'0 0.0
2016-Jun-08 11:32N 37°48' W 122°19'0 0.0
2016-Jun-08 10:31N 37°48' W 122°19'0 0.0
2016-Jun-08 09:31N 37°48' W 122°19'0 0.0
2016-Jun-08 08:30N 37°48' W 122°19'0 0.0
2016-Jun-08 07:33N 37°48' W 122°19'0 0.0
2016-Jun-08 06:32N 37°48' W 122°19'0 0.0
2016-Jun-08 05:32N 37°48' W 122°19'0 0.0
2016-Jun-08 04:28N 37°48' W 122°19'0 0.0
2016-Jun-08 03:28N 37°48' W 122°19'0 0.0
2016-Jun-08 02:28N 37°48' W 122°19'0 0.0
2016-Jun-08 01:33N 37°48' W 122°19'0 0.0
2016-Jun-08 00:27N 37°48' W 122°19'0 0.0
2016-Jun-07 23:32N 37°48' W 122°19'0 0.0
2016-Jun-07 22:32N 37°48' W 122°19'0 0.0
2016-Jun-07 21:25N 37°48' W 122°19'0 0.0
2016-Jun-07 20:31N 37°48' W 122°19'0 0.0
2016-Jun-07 19:31N 37°48' W 122°19'0 0.0
2016-Jun-07 18:30N 37°48' W 122°19'0 0.0
2016-Jun-07 17:30N 37°48' W 122°19'0 0.0
2016-Jun-07 16:29N 37°48' W 122°19'0 0.0
2016-Jun-07 15:29N 37°48' W 122°19'0 0.0
2016-Jun-07 14:31N 37°48' W 122°19'0 0.0
2016-Jun-07 13:31N 37°48' W 122°19'0 0.0
2016-Jun-07 12:34N 37°48' W 122°19'0 0.0
2016-Jun-07 11:33N 37°48' W 122°19'0 0.0
2016-Jun-07 10:33N 37°48' W 122°19'0 0.0
2016-Jun-07 09:33N 37°48' W 122°19'8 8.4
2016-Jun-07 08:33N 37°49' W 122°30'1111.1
2016-Jun-07 07:33N 37°42' W 122°40'8 7.8
2016-Jun-07 06:33N 37°34' W 122°40'9 8.8
2016-Jun-07 05:33N 37°25' W 122°39'1010.0
2016-Jun-07 04:33N 37°15' W 122°39'1110.8
2016-Jun-07 03:33N 37°04' W 122°36'1110.5
2016-Jun-07 02:33N 36°55' W 122°31'1110.6
2016-Jun-07 01:33N 36°45' W 122°26'1010.5
2016-Jun-07 00:33N 36°35' W 122°22'1110.6
2016-Jun-06 23:33N 36°25' W 122°17'1110.9
2016-Jun-06 22:33N 36°15' W 122°12'1111.2
2016-Jun-06 21:33N 36°05' W 122°07'1211.7
2016-Jun-06 20:33N 35°54' W 122°01'3411.3
2016-Jun-06 17:33N 35°24' W 121°41'1212.2
2016-Jun-06 16:33N 35°14' W 121°33'1212.4
2016-Jun-06 15:33N 35°04' W 121°25'1313.4
2016-Jun-06 14:33N 34°52' W 121°16'1313.3
2016-Jun-06 13:33N 34°41' W 121°06'1412.7
2016-Jun-06 12:28N 34°30' W 120°57'1212.4
2016-Jun-06 11:31N 34°25' W 120°45'1212.3
2016-Jun-06 10:30N 34°21' W 120°30'4912.1
2016-Jun-06 06:28N 34°08' W 119°33'1112.1
2016-Jun-06 05:31N 34°05' W 119°20'1312.2
2016-Jun-06 04:29N 34°00' W 119°06'1111.7
2016-Jun-06 03:33N 33°55' W 118°54'1111.3
2016-Jun-06 02:33N 33°50' W 118°43'1211.8
2016-Jun-06 01:33N 33°44' W 118°30'1211.7
2016-Jun-06 00:33N 33°38' W 118°18'8 8.1
2016-Jun-05 23:33N 33°44' W 118°11'1 0.7
2016-Jun-05 22:31N 33°44' W 118°12'0 0.0
2016-Jun-05 21:31N 33°44' W 118°12'0 0.0
2016-Jun-05 20:28N 33°44' W 118°12'0 0.0
2016-Jun-05 19:33N 33°44' W 118°12'0 0.0
2016-Jun-05 18:33N 33°44' W 118°12'0 0.0
2016-Jun-05 17:32N 33°44' W 118°12'0 0.0
2016-Jun-05 16:32N 33°44' W 118°12'0 0.0
2016-Jun-05 15:22N 33°44' W 118°12'0 0.0
2016-Jun-05 14:31N 33°44' W 118°12'0 0.0
2016-Jun-05 13:34N 33°44' W 118°12'0 0.0
2016-Jun-05 12:33N 33°44' W 118°12'0 0.0
2016-Jun-05 11:30N 33°44' W 118°12'0 0.0
2016-Jun-05 10:29N 33°44' W 118°12'0 0.0
2016-Jun-05 09:32N 33°44' W 118°12'0 0.0
2016-Jun-05 08:31N 33°44' W 118°12'0 0.0
2016-Jun-05 07:31N 33°44' W 118°12'0 0.0
2016-Jun-05 06:30N 33°44' W 118°12'0 0.0
2016-Jun-05 05:33N 33°44' W 118°12'0 0.0
2016-Jun-05 04:33N 33°44' W 118°12'0 0.0
2016-Jun-05 03:32N 33°44' W 118°12'0 0.0
2016-Jun-05 02:32N 33°44' W 118°12'0 0.0
2016-Jun-05 01:31N 33°44' W 118°12'0 0.0
2016-Jun-05 00:31N 33°44' W 118°12'0 0.0
2016-Jun-04 23:33N 33°44' W 118°12'0 0.0
2016-Jun-04 22:33N 33°44' W 118°12'0 0.0
2016-Jun-04 21:33N 33°44' W 118°12'0 0.0
2016-Jun-04 20:32N 33°44' W 118°12'0 0.0
2016-Jun-04 19:32N 33°44' W 118°12'0 0.0
2016-Jun-04 18:31N 33°44' W 118°12'0 0.0
2016-Jun-04 17:31N 33°44' W 118°12'0 0.0
2016-Jun-04 16:33N 33°44' W 118°12'0 0.0
2016-Jun-04 15:33N 33°44' W 118°12'0 0.0
2016-Jun-04 14:33N 33°44' W 118°12'0 0.0
2016-Jun-04 13:32N 33°44' W 118°12'0 0.0
2016-Jun-04 12:32N 33°44' W 118°12'0 0.0
2016-Jun-04 11:31N 33°44' W 118°12'0 0.0
2016-Jun-04 10:31N 33°44' W 118°12'0 0.0
2016-Jun-04 09:33N 33°44' W 118°12'0 0.0
2016-Jun-04 08:33N 33°44' W 118°12'0 0.0
2016-Jun-04 07:33N 33°44' W 118°12'0 0.0
2016-Jun-04 06:32N 33°44' W 118°12'0 0.0
2016-Jun-04 05:32N 33°44' W 118°12'0 0.0
2016-Jun-04 04:31N 33°44' W 118°12'0 0.0
2016-Jun-04 03:31N 33°44' W 118°12'0 0.0
2016-Jun-04 02:33N 33°44' W 118°12'0 0.0
2016-Jun-04 01:33N 33°44' W 118°12'0 0.0
2016-Jun-04 00:32N 33°44' W 118°12'0 0.0
2016-Jun-03 23:32N 33°44' W 118°12'0 0.0
2016-Jun-03 22:32N 33°44' W 118°12'0 0.0
2016-Jun-03 21:31N 33°44' W 118°12'0 0.0
2016-Jun-03 20:31N 33°44' W 118°12'0 0.0
2016-Jun-03 19:33N 33°44' W 118°12'0 0.0
2016-Jun-03 18:33N 33°44' W 118°12'0 0.0
2016-Jun-03 17:32N 33°44' W 118°12'0 0.0
2016-Jun-03 16:32N 33°44' W 118°12'0 0.0
2016-Jun-03 15:32N 33°44' W 118°12'0 0.0
2016-Jun-03 14:31N 33°44' W 118°12'0 0.0
2016-Jun-03 13:31N 33°44' W 118°12'0 0.0
2016-Jun-03 12:33N 33°44' W 118°12'0 0.0
2016-Jun-03 11:27N 33°44' W 118°12'0 0.0
2016-Jun-03 10:32N 33°44' W 118°12'0 0.0
2016-Jun-03 09:32N 33°44' W 118°12'0 0.0
2016-Jun-03 08:32N 33°44' W 118°12'0 0.0
2016-Jun-03 07:31N 33°44' W 118°12'0 0.0
2016-Jun-03 06:31N 33°44' W 118°12'0 0.0
2016-Jun-03 05:33N 33°44' W 118°12'0 0.0
2016-Jun-03 04:33N 33°44' W 118°12'0 0.0
2016-Jun-03 03:32N 33°44' W 118°12'0 0.0
2016-Jun-03 02:32N 33°44' W 118°12'0 0.0
2016-Jun-03 01:32N 33°44' W 118°12'0 0.0
2016-Jun-03 00:31N 33°44' W 118°12'0 0.0
2016-Jun-02 23:31N 33°44' W 118°12'0 0.0
2016-Jun-02 22:33N 33°44' W 118°12'0 0.0
2016-Jun-02 21:33N 33°44' W 118°12'0 0.0
2016-Jun-02 20:32N 33°44' W 118°12'0 0.0
2016-Jun-02 19:32N 33°44' W 118°12'0 0.0
2016-Jun-02 18:31N 33°44' W 118°12'0 0.0
2016-Jun-02 17:31N 33°44' W 118°12'0 0.0
2016-Jun-02 16:31N 33°44' W 118°12'0 0.0
2016-Jun-02 15:33N 33°44' W 118°12'0 0.0
2016-Jun-02 14:33N 33°44' W 118°12'0 0.0
2016-Jun-02 13:32N 33°44' W 118°12'0 0.0
2016-Jun-02 12:32N 33°44' W 118°12'0 0.0
2016-Jun-02 11:31N 33°44' W 118°12'0 0.0
2016-Jun-02 10:31N 33°44' W 118°12'0 0.0
2016-Jun-02 09:28N 33°44' W 118°12'0 0.0
2016-Jun-02 08:33N 33°44' W 118°12'0 0.0
2016-Jun-02 07:33N 33°44' W 118°12'0 0.0
2016-Jun-02 06:26N 33°44' W 118°12'0 0.0
2016-Jun-02 05:32N 33°44' W 118°12'0 0.0
2016-Jun-02 04:31N 33°44' W 118°12'0 0.0
2016-Jun-02 03:31N 33°44' W 118°12'0 0.0
2016-Jun-02 02:34N 33°44' W 118°12'0 0.0
2016-Jun-02 01:33N 33°44' W 118°12'0 0.0
2016-Jun-02 00:33N 33°44' W 118°12'0 0.0
2016-Jun-01 23:32N 33°44' W 118°12'0 0.0
2016-Jun-01 22:32N 33°44' W 118°12'1 0.7
2016-Jun-01 21:33N 33°44' W 118°11'7 7.2
2016-Jun-01 20:32N 33°37' W 118°13'2512.2
2016-Jun-01 18:30N 33°36' W 118°43'1413.8
2016-Jun-01 17:31N 33°37' W 118°60'16615.2
2016-Jun-01 06:32N 33°36' W 122°19'1616.2
2016-Jun-01 05:34N 33°36' W 122°38'1616.1
2016-Jun-01 04:34N 33°36' W 122°58'1616.1
2016-Jun-01 03:32N 33°36' W 123°17'1616.2
2016-Jun-01 02:34N 33°35' W 123°36'1917.3
2016-Jun-01 01:26N 33°35' W 123°60'1617.6
2016-Jun-01 00:32N 33°35' W 124°19'1918.8
2016-May-31 23:30N 33°39' W 124°42'2120.1
2016-May-31 22:28N 33°48' W 125°04'1920.9
2016-May-31 21:34N 33°56' W 125°25'2120.9
2016-May-31 20:34N 34°05' W 125°48'2520.9
2016-May-31 19:23N 34°15' W 126°15'2220.8
2016-May-31 18:20N 34°24' W 126°39'1721.0
2016-May-31 17:32N 34°31' W 126°58'2020.8
2016-May-31 16:33N 34°39' W 127°20'2120.8
2016-May-31 15:34N 34°47' W 127°43'2120.7
2016-May-31 14:33N 34°55' W 128°07'2120.8
2016-May-31 13:32N 35°03' W 128°31'2020.7
2016-May-31 12:34N 35°12' W 128°53'2120.6
2016-May-31 11:34N 35°19' W 129°16'2120.7
2016-May-31 10:33N 35°27' W 129°40'2120.7
2016-May-31 09:33N 35°35' W 130°04'2020.5
2016-May-31 08:34N 35°42' W 130°27'  

Dump ship's entire track history